sensor_id;sensor_type;location;lat;lon;timestamp;P1;durP1;ratioP1;P2;durP2;ratioP2
67819;SDS011;54618;52.018;5.576;2022-09-03T00:13:34;3.22;;;1.50;;
67819;SDS011;54618;52.018;5.576;2022-09-03T00:16:04;2.30;;;1.48;;
67819;SDS011;54618;52.018;5.576;2022-09-03T00:18:34;2.67;;;1.40;;
67819;SDS011;54618;52.018;5.576;2022-09-03T00:21:08;1.80;;;1.42;;
67819;SDS011;54618;52.018;5.576;2022-09-03T00:23:40;2.22;;;1.45;;
67819;SDS011;54618;52.018;5.576;2022-09-03T00:29:20;2.55;;;1.50;;
67819;SDS011;54618;52.018;5.576;2022-09-03T00:31:44;2.05;;;1.50;;
67819;SDS011;54618;52.018;5.576;2022-09-03T00:34:20;5.00;;;1.63;;
67819;SDS011;54618;52.018;5.576;2022-09-03T00:36:52;2.25;;;1.35;;
67819;SDS011;54618;52.018;5.576;2022-09-03T00:39:18;2.88;;;1.58;;
67819;SDS011;54618;52.018;5.576;2022-09-03T00:41:49;3.05;;;1.45;;
67819;SDS011;54618;52.018;5.576;2022-09-03T00:49:46;2.15;;;1.42;;
67819;SDS011;54618;52.018;5.576;2022-09-03T00:52:19;2.28;;;1.30;;
67819;SDS011;54618;52.018;5.576;2022-09-03T00:57:50;2.63;;;1.30;;
67819;SDS011;54618;52.018;5.576;2022-09-03T01:00:24;2.38;;;1.35;;
67819;SDS011;54618;52.018;5.576;2022-09-03T01:11:16;1.63;;;1.23;;
67819;SDS011;54618;52.018;5.576;2022-09-03T01:16:48;2.50;;;1.38;;
67819;SDS011;54618;52.018;5.576;2022-09-03T01:30:26;3.00;;;1.50;;
67819;SDS011;54618;52.018;5.576;2022-09-03T01:35:47;2.25;;;1.40;;
67819;SDS011;54618;52.018;5.576;2022-09-03T01:44:19;2.95;;;1.38;;
67819;SDS011;54618;52.018;5.576;2022-09-03T01:46:49;2.38;;;1.40;;
67819;SDS011;54618;52.018;5.576;2022-09-03T01:49:30;2.00;;;1.40;;
67819;SDS011;54618;52.018;5.576;2022-09-03T01:52:16;2.55;;;1.30;;
67819;SDS011;54618;52.018;5.576;2022-09-03T02:00:14;3.30;;;1.27;;
67819;SDS011;54618;52.018;5.576;2022-09-03T02:02:45;2.08;;;1.33;;
67819;SDS011;54618;52.018;5.576;2022-09-03T02:05:23;2.15;;;1.30;;
67819;SDS011;54618;52.018;5.576;2022-09-03T02:07:54;2.70;;;1.30;;
67819;SDS011;54618;52.018;5.576;2022-09-03T02:10:25;3.42;;;1.30;;
67819;SDS011;54618;52.018;5.576;2022-09-03T02:12:57;2.72;;;1.50;;
67819;SDS011;54618;52.018;5.576;2022-09-03T02:15:36;2.83;;;1.48;;
67819;SDS011;54618;52.018;5.576;2022-09-03T02:18:05;2.35;;;1.40;;
67819;SDS011;54618;52.018;5.576;2022-09-03T02:20:35;3.40;;;1.52;;
67819;SDS011;54618;52.018;5.576;2022-09-03T02:23:01;3.30;;;1.50;;
67819;SDS011;54618;52.018;5.576;2022-09-03T02:25:28;2.10;;;1.20;;
67819;SDS011;54618;52.018;5.576;2022-09-03T02:27:57;2.95;;;1.50;;
67819;SDS011;54618;52.018;5.576;2022-09-03T02:30:24;2.30;;;1.30;;
67819;SDS011;54618;52.018;5.576;2022-09-03T02:32:50;2.80;;;1.30;;
67819;SDS011;54618;52.018;5.576;2022-09-03T02:35:16;2.00;;;1.40;;
67819;SDS011;54618;52.018;5.576;2022-09-03T02:37:42;2.15;;;1.20;;
67819;SDS011;54618;52.018;5.576;2022-09-03T02:40:07;3.25;;;1.23;;
67819;SDS011;54618;52.018;5.576;2022-09-03T02:42:34;2.08;;;1.30;;
67819;SDS011;54618;52.018;5.576;2022-09-03T02:45:02;2.85;;;1.30;;
67819;SDS011;54618;52.018;5.576;2022-09-03T02:47:32;1.75;;;1.23;;
67819;SDS011;54618;52.018;5.576;2022-09-03T02:50:01;1.70;;;1.20;;
67819;SDS011;54618;52.018;5.576;2022-09-03T02:52:26;4.80;;;1.40;;
67819;SDS011;54618;52.018;5.576;2022-09-03T02:54:52;2.33;;;1.33;;
67819;SDS011;54618;52.018;5.576;2022-09-03T02:57:18;2.45;;;1.20;;
67819;SDS011;54618;52.018;5.576;2022-09-03T02:59:43;2.00;;;1.20;;
67819;SDS011;54618;52.018;5.576;2022-09-03T03:02:10;3.30;;;1.40;;
67819;SDS011;54618;52.018;5.576;2022-09-03T03:04:36;2.78;;;1.10;;
67819;SDS011;54618;52.018;5.576;2022-09-03T03:07:02;2.67;;;1.20;;
67819;SDS011;54618;52.018;5.576;2022-09-03T03:09:28;2.38;;;1.35;;
67819;SDS011;54618;52.018;5.576;2022-09-03T03:11:54;2.75;;;1.30;;
67819;SDS011;54618;52.018;5.576;2022-09-03T03:14:20;2.88;;;1.40;;
67819;SDS011;54618;52.018;5.576;2022-09-03T03:16:46;2.08;;;1.25;;
67819;SDS011;54618;52.018;5.576;2022-09-03T03:19:12;1.85;;;1.40;;
67819;SDS011;54618;52.018;5.576;2022-09-03T03:21:38;2.97;;;1.30;;
67819;SDS011;54618;52.018;5.576;2022-09-03T03:24:03;2.00;;;1.30;;
67819;SDS011;54618;52.018;5.576;2022-09-03T03:26:29;2.15;;;1.20;;
67819;SDS011;54618;52.018;5.576;2022-09-03T03:28:55;2.33;;;1.25;;
67819;SDS011;54618;52.018;5.576;2022-09-03T03:31:23;2.25;;;1.20;;
67819;SDS011;54618;52.018;5.576;2022-09-03T03:33:50;2.25;;;1.20;;
67819;SDS011;54618;52.018;5.576;2022-09-03T03:36:17;2.40;;;1.40;;
67819;SDS011;54618;52.018;5.576;2022-09-03T03:38:43;2.30;;;1.30;;
67819;SDS011;54618;52.018;5.576;2022-09-03T03:41:18;1.70;;;1.15;;
67819;SDS011;54618;52.018;5.576;2022-09-03T03:43:46;2.03;;;1.33;;
67819;SDS011;54618;52.018;5.576;2022-09-03T03:46:12;1.40;;;1.10;;
67819;SDS011;54618;52.018;5.576;2022-09-03T03:48:41;1.67;;;1.10;;
67819;SDS011;54618;52.018;5.576;2022-09-03T03:51:07;2.28;;;1.20;;
67819;SDS011;54618;52.018;5.576;2022-09-03T03:53:34;1.88;;;1.10;;
67819;SDS011;54618;52.018;5.576;2022-09-03T03:56:03;2.00;;;1.50;;
67819;SDS011;54618;52.018;5.576;2022-09-03T03:58:32;2.00;;;1.23;;
67819;SDS011;54618;52.018;5.576;2022-09-03T04:01:14;2.65;;;1.25;;
67819;SDS011;54618;52.018;5.576;2022-09-03T04:03:41;2.15;;;1.40;;
67819;SDS011;54618;52.018;5.576;2022-09-03T04:06:08;1.42;;;1.15;;
67819;SDS011;54618;52.018;5.576;2022-09-03T04:08:36;2.85;;;1.23;;
67819;SDS011;54618;52.018;5.576;2022-09-03T04:11:03;2.80;;;1.10;;
67819;SDS011;54618;52.018;5.576;2022-09-03T04:13:31;3.00;;;1.40;;
67819;SDS011;54618;52.018;5.576;2022-09-03T04:18:37;2.70;;;1.20;;
67819;SDS011;54618;52.018;5.576;2022-09-03T04:21:05;1.85;;;1.20;;
67819;SDS011;54618;52.018;5.576;2022-09-03T04:23:32;3.55;;;1.30;;
67819;SDS011;54618;52.018;5.576;2022-09-03T04:25:59;2.53;;;1.27;;
67819;SDS011;54618;52.018;5.576;2022-09-03T04:28:25;2.75;;;1.20;;
67819;SDS011;54618;52.018;5.576;2022-09-03T04:30:51;3.25;;;1.17;;
67819;SDS011;54618;52.018;5.576;2022-09-03T04:33:17;2.40;;;1.20;;
67819;SDS011;54618;52.018;5.576;2022-09-03T04:35:43;2.67;;;1.30;;
67819;SDS011;54618;52.018;5.576;2022-09-03T04:38:09;1.50;;;1.00;;
67819;SDS011;54618;52.018;5.576;2022-09-03T04:40:35;2.22;;;1.10;;
67819;SDS011;54618;52.018;5.576;2022-09-03T04:43:01;2.60;;;1.25;;
67819;SDS011;54618;52.018;5.576;2022-09-03T04:45:27;2.53;;;1.30;;
67819;SDS011;54618;52.018;5.576;2022-09-03T04:47:59;2.03;;;1.15;;
67819;SDS011;54618;52.018;5.576;2022-09-03T04:50:26;3.17;;;1.20;;
67819;SDS011;54618;52.018;5.576;2022-09-03T04:52:54;2.33;;;1.20;;
67819;SDS011;54618;52.018;5.576;2022-09-03T04:55:25;2.03;;;1.20;;
67819;SDS011;54618;52.018;5.576;2022-09-03T04:57:50;1.98;;;1.10;;
67819;SDS011;54618;52.018;5.576;2022-09-03T05:00:16;1.85;;;1.10;;
67819;SDS011;54618;52.018;5.576;2022-09-03T05:02:45;2.05;;;1.13;;
67819;SDS011;54618;52.018;5.576;2022-09-03T05:05:12;2.50;;;1.13;;
67819;SDS011;54618;52.018;5.576;2022-09-03T05:07:38;2.88;;;1.10;;
67819;SDS011;54618;52.018;5.576;2022-09-03T05:10:05;2.85;;;1.30;;
67819;SDS011;54618;52.018;5.576;2022-09-03T05:12:32;3.28;;;1.17;;
67819;SDS011;54618;52.018;5.576;2022-09-03T05:14:58;2.17;;;1.40;;
67819;SDS011;54618;52.018;5.576;2022-09-03T05:17:28;1.80;;;1.20;;
67819;SDS011;54618;52.018;5.576;2022-09-03T05:19:53;2.85;;;1.10;;
67819;SDS011;54618;52.018;5.576;2022-09-03T05:22:19;2.22;;;1.20;;
67819;SDS011;54618;52.018;5.576;2022-09-03T05:24:47;1.80;;;1.15;;
67819;SDS011;54618;52.018;5.576;2022-09-03T05:27:13;2.95;;;1.27;;
67819;SDS011;54618;52.018;5.576;2022-09-03T05:29:41;2.47;;;1.00;;
67819;SDS011;54618;52.018;5.576;2022-09-03T05:32:07;1.65;;;1.10;;
67819;SDS011;54618;52.018;5.576;2022-09-03T05:34:33;3.03;;;1.23;;
67819;SDS011;54618;52.018;5.576;2022-09-03T05:36:58;1.95;;;1.30;;
67819;SDS011;54618;52.018;5.576;2022-09-03T05:39:24;3.90;;;1.30;;
67819;SDS011;54618;52.018;5.576;2022-09-03T05:41:50;2.85;;;1.30;;
67819;SDS011;54618;52.018;5.576;2022-09-03T05:44:17;2.58;;;1.13;;
67819;SDS011;54618;52.018;5.576;2022-09-03T05:46:42;2.47;;;1.30;;
67819;SDS011;54618;52.018;5.576;2022-09-03T05:49:08;2.20;;;1.30;;
67819;SDS011;54618;52.018;5.576;2022-09-03T05:51:35;2.10;;;1.30;;
67819;SDS011;54618;52.018;5.576;2022-09-03T05:54:03;2.50;;;1.20;;
67819;SDS011;54618;52.018;5.576;2022-09-03T05:56:29;1.70;;;1.15;;
67819;SDS011;54618;52.018;5.576;2022-09-03T05:58:57;2.58;;;1.35;;
67819;SDS011;54618;52.018;5.576;2022-09-03T06:01:29;3.08;;;1.20;;
67819;SDS011;54618;52.018;5.576;2022-09-03T06:06:24;3.33;;;1.33;;
67819;SDS011;54618;52.018;5.576;2022-09-03T06:08:54;2.10;;;1.40;;
67819;SDS011;54618;52.018;5.576;2022-09-03T06:11:22;1.42;;;0.98;;
67819;SDS011;54618;52.018;5.576;2022-09-03T06:13:55;2.50;;;0.95;;
67819;SDS011;54618;52.018;5.576;2022-09-03T06:16:24;1.63;;;1.00;;
67819;SDS011;54618;52.018;5.576;2022-09-03T06:18:49;3.42;;;1.10;;
67819;SDS011;54618;52.018;5.576;2022-09-03T06:21:15;1.77;;;1.10;;
67819;SDS011;54618;52.018;5.576;2022-09-03T06:23:41;1.33;;;1.02;;
67819;SDS011;54618;52.018;5.576;2022-09-03T06:26:08;1.88;;;1.20;;
67819;SDS011;54618;52.018;5.576;2022-09-03T06:28:37;3.05;;;1.35;;
67819;SDS011;54618;52.018;5.576;2022-09-03T06:31:05;2.53;;;1.10;;
67819;SDS011;54618;52.018;5.576;2022-09-03T06:33:34;1.27;;;1.00;;
67819;SDS011;54618;52.018;5.576;2022-09-03T06:36:01;2.47;;;1.20;;
67819;SDS011;54618;52.018;5.576;2022-09-03T06:38:29;3.45;;;1.23;;
67819;SDS011;54618;52.018;5.576;2022-09-03T06:41:02;2.08;;;1.10;;
67819;SDS011;54618;52.018;5.576;2022-09-03T06:43:31;3.30;;;1.20;;
67819;SDS011;54618;52.018;5.576;2022-09-03T06:46:00;2.28;;;1.15;;
67819;SDS011;54618;52.018;5.576;2022-09-03T06:48:29;1.55;;;1.10;;
67819;SDS011;54618;52.018;5.576;2022-09-03T06:50:59;2.33;;;1.20;;
67819;SDS011;54618;52.018;5.576;2022-09-03T06:53:31;1.40;;;1.10;;
67819;SDS011;54618;52.018;5.576;2022-09-03T06:55:59;2.50;;;1.10;;
67819;SDS011;54618;52.018;5.576;2022-09-03T06:58:33;1.80;;;1.25;;
67819;SDS011;54618;52.018;5.576;2022-09-03T07:01:05;1.60;;;1.00;;
67819;SDS011;54618;52.018;5.576;2022-09-03T07:03:35;1.98;;;1.20;;
67819;SDS011;54618;52.018;5.576;2022-09-03T07:06:03;1.73;;;1.13;;
67819;SDS011;54618;52.018;5.576;2022-09-03T07:08:31;3.72;;;1.20;;
67819;SDS011;54618;52.018;5.576;2022-09-03T07:11:08;3.17;;;1.13;;
67819;SDS011;54618;52.018;5.576;2022-09-03T07:13:36;2.10;;;1.10;;
67819;SDS011;54618;52.018;5.576;2022-09-03T07:16:05;1.85;;;1.10;;
67819;SDS011;54618;52.018;5.576;2022-09-03T07:18:42;3.30;;;1.17;;
67819;SDS011;54618;52.018;5.576;2022-09-03T07:21:09;3.10;;;1.30;;
67819;SDS011;54618;52.018;5.576;2022-09-03T07:23:37;2.15;;;1.35;;
67819;SDS011;54618;52.018;5.576;2022-09-03T07:26:11;4.57;;;1.35;;
67819;SDS011;54618;52.018;5.576;2022-09-03T07:28:42;2.08;;;1.27;;
67819;SDS011;54618;52.018;5.576;2022-09-03T07:31:10;1.90;;;1.10;;
67819;SDS011;54618;52.018;5.576;2022-09-03T07:33:39;2.35;;;1.20;;
67819;SDS011;54618;52.018;5.576;2022-09-03T07:36:08;2.53;;;1.25;;
67819;SDS011;54618;52.018;5.576;2022-09-03T07:38:36;2.63;;;1.10;;
67819;SDS011;54618;52.018;5.576;2022-09-03T07:41:03;7.75;;;1.75;;
67819;SDS011;54618;52.018;5.576;2022-09-03T07:43:36;3.92;;;1.30;;
67819;SDS011;54618;52.018;5.576;2022-09-03T07:46:19;3.88;;;1.23;;
67819;SDS011;54618;52.018;5.576;2022-09-03T07:48:47;6.72;;;1.40;;
67819;SDS011;54618;52.018;5.576;2022-09-03T07:51:14;4.45;;;1.35;;
67819;SDS011;54618;52.018;5.576;2022-09-03T07:53:41;5.68;;;1.38;;
67819;SDS011;54618;52.018;5.576;2022-09-03T07:56:09;2.70;;;1.27;;
67819;SDS011;54618;52.018;5.576;2022-09-03T07:58:35;4.32;;;1.63;;
67819;SDS011;54618;52.018;5.576;2022-09-03T08:01:03;4.53;;;1.50;;
67819;SDS011;54618;52.018;5.576;2022-09-03T08:03:32;4.65;;;1.75;;
67819;SDS011;54618;52.018;5.576;2022-09-03T08:05:59;5.53;;;1.85;;
67819;SDS011;54618;52.018;5.576;2022-09-03T08:08:26;5.22;;;1.60;;
67819;SDS011;54618;52.018;5.576;2022-09-03T08:10:53;3.58;;;1.65;;
67819;SDS011;54618;52.018;5.576;2022-09-03T08:13:19;3.67;;;1.60;;
67819;SDS011;54618;52.018;5.576;2022-09-03T08:15:52;4.68;;;1.95;;
67819;SDS011;54618;52.018;5.576;2022-09-03T08:18:21;3.72;;;1.67;;
67819;SDS011;54618;52.018;5.576;2022-09-03T08:20:47;3.33;;;1.73;;
67819;SDS011;54618;52.018;5.576;2022-09-03T08:23:12;3.55;;;1.70;;
67819;SDS011;54618;52.018;5.576;2022-09-03T08:25:38;3.85;;;1.63;;
67819;SDS011;54618;52.018;5.576;2022-09-03T08:28:04;4.07;;;1.60;;
67819;SDS011;54618;52.018;5.576;2022-09-03T08:30:29;4.00;;;1.70;;
67819;SDS011;54618;52.018;5.576;2022-09-03T08:32:55;4.55;;;1.83;;
67819;SDS011;54618;52.018;5.576;2022-09-03T08:35:21;4.13;;;1.50;;
67819;SDS011;54618;52.018;5.576;2022-09-03T08:37:47;6.10;;;1.80;;
67819;SDS011;54618;52.018;5.576;2022-09-03T08:40:15;5.05;;;1.60;;
67819;SDS011;54618;52.018;5.576;2022-09-03T08:45:11;2.75;;;1.52;;
67819;SDS011;54618;52.018;5.576;2022-09-03T08:47:45;3.92;;;1.70;;
67819;SDS011;54618;52.018;5.576;2022-09-03T08:52:44;6.60;;;1.90;;
67819;SDS011;54618;52.018;5.576;2022-09-03T08:58:05;3.17;;;1.40;;
67819;SDS011;54618;52.018;5.576;2022-09-03T09:14:14;3.60;;;1.40;;
67819;SDS011;54618;52.018;5.576;2022-09-03T09:17:04;4.22;;;1.60;;
67819;SDS011;54618;52.018;5.576;2022-09-03T09:22:40;4.43;;;1.30;;
67819;SDS011;54618;52.018;5.576;2022-09-03T09:25:12;2.10;;;1.30;;
67819;SDS011;54618;52.018;5.576;2022-09-03T09:27:49;5.18;;;1.67;;
67819;SDS011;54618;52.018;5.576;2022-09-03T09:30:15;2.92;;;1.40;;
67819;SDS011;54618;52.018;5.576;2022-09-03T09:32:41;4.00;;;1.33;;
67819;SDS011;54618;52.018;5.576;2022-09-03T09:35:08;3.97;;;1.48;;
67819;SDS011;54618;52.018;5.576;2022-09-03T09:37:44;3.45;;;1.40;;
67819;SDS011;54618;52.018;5.576;2022-09-03T09:40:20;2.80;;;1.27;;
67819;SDS011;54618;52.018;5.576;2022-09-03T09:43:07;3.05;;;1.50;;
67819;SDS011;54618;52.018;5.576;2022-09-03T09:45:34;3.58;;;1.40;;
67819;SDS011;54618;52.018;5.576;2022-09-03T09:48:07;2.45;;;1.33;;
67819;SDS011;54618;52.018;5.576;2022-09-03T09:50:40;2.28;;;1.30;;
67819;SDS011;54618;52.018;5.576;2022-09-03T09:53:09;2.75;;;1.17;;
67819;SDS011;54618;52.018;5.576;2022-09-03T09:55:52;4.68;;;1.38;;
67819;SDS011;54618;52.018;5.576;2022-09-03T09:58:20;2.33;;;1.30;;
67819;SDS011;54618;52.018;5.576;2022-09-03T10:01:22;4.47;;;1.50;;
67819;SDS011;54618;52.018;5.576;2022-09-03T10:04:00;2.47;;;1.30;;
67819;SDS011;54618;52.018;5.576;2022-09-03T10:06:34;5.05;;;1.45;;
67819;SDS011;54618;52.018;5.576;2022-09-03T10:09:19;3.25;;;1.27;;
67819;SDS011;54618;52.018;5.576;2022-09-03T10:11:55;3.45;;;1.40;;
67819;SDS011;54618;52.018;5.576;2022-09-03T10:14:50;1.88;;;1.10;;
67819;SDS011;54618;52.018;5.576;2022-09-03T10:17:37;3.83;;;1.40;;
67819;SDS011;54618;52.018;5.576;2022-09-03T10:25:28;2.38;;;1.30;;
67819;SDS011;54618;52.018;5.576;2022-09-03T10:28:17;3.45;;;1.30;;
67819;SDS011;54618;52.018;5.576;2022-09-03T10:31:04;1.88;;;1.13;;
67819;SDS011;54618;52.018;5.576;2022-09-03T10:39:40;2.67;;;1.20;;
67819;SDS011;54618;52.018;5.576;2022-09-03T10:48:03;2.28;;;1.25;;
67819;SDS011;54618;52.018;5.576;2022-09-03T10:50:50;4.43;;;1.50;;
67819;SDS011;54618;52.018;5.576;2022-09-03T11:01:21;2.90;;;1.10;;
67819;SDS011;54618;52.018;5.576;2022-09-03T11:06:53;5.72;;;1.25;;
67819;SDS011;54618;52.018;5.576;2022-09-03T11:12:05;3.33;;;1.10;;
67819;SDS011;54618;52.018;5.576;2022-09-03T11:14:41;6.63;;;1.45;;
67819;SDS011;54618;52.018;5.576;2022-09-03T11:17:25;8.05;;;1.10;;
67819;SDS011;54618;52.018;5.576;2022-09-03T11:22:33;3.05;;;1.05;;
67819;SDS011;54618;52.018;5.576;2022-09-03T11:25:02;3.80;;;1.30;;
67819;SDS011;54618;52.018;5.576;2022-09-03T11:30:06;2.88;;;1.10;;
67819;SDS011;54618;52.018;5.576;2022-09-03T11:35:14;3.70;;;1.08;;
67819;SDS011;54618;52.018;5.576;2022-09-03T11:37:53;2.30;;;1.10;;
67819;SDS011;54618;52.018;5.576;2022-09-03T11:40:34;6.93;;;1.23;;
67819;SDS011;54618;52.018;5.576;2022-09-03T11:43:11;3.15;;;1.10;;
67819;SDS011;54618;52.018;5.576;2022-09-03T11:46:08;6.32;;;1.20;;
67819;SDS011;54618;52.018;5.576;2022-09-03T11:48:55;5.15;;;1.10;;
67819;SDS011;54618;52.018;5.576;2022-09-03T11:51:35;3.75;;;1.20;;
67819;SDS011;54618;52.018;5.576;2022-09-03T11:56:36;2.55;;;1.00;;
67819;SDS011;54618;52.018;5.576;2022-09-03T11:59:03;2.63;;;1.10;;
67819;SDS011;54618;52.018;5.576;2022-09-03T12:01:51;3.17;;;1.27;;
67819;SDS011;54618;52.018;5.576;2022-09-03T12:04:32;2.90;;;1.20;;
67819;SDS011;54618;52.018;5.576;2022-09-03T12:12:32;6.43;;;1.05;;
67819;SDS011;54618;52.018;5.576;2022-09-03T12:15:44;3.72;;;0.95;;
67819;SDS011;54618;52.018;5.576;2022-09-03T12:18:38;3.13;;;1.20;;
67819;SDS011;54618;52.018;5.576;2022-09-03T12:21:06;2.00;;;1.00;;
67819;SDS011;54618;52.018;5.576;2022-09-03T12:23:39;2.30;;;1.13;;
67819;SDS011;54618;52.018;5.576;2022-09-03T12:26:08;3.85;;;1.10;;
67819;SDS011;54618;52.018;5.576;2022-09-03T12:28:47;2.47;;;1.15;;
67819;SDS011;54618;52.018;5.576;2022-09-03T12:31:17;2.10;;;1.00;;
67819;SDS011;54618;52.018;5.576;2022-09-03T12:33:52;2.60;;;1.08;;
67819;SDS011;54618;52.018;5.576;2022-09-03T12:36:37;3.13;;;0.98;;
67819;SDS011;54618;52.018;5.576;2022-09-03T12:39:15;4.10;;;1.23;;
67819;SDS011;54618;52.018;5.576;2022-09-03T12:41:53;3.50;;;1.00;;
67819;SDS011;54618;52.018;5.576;2022-09-03T12:44:26;3.90;;;1.02;;
67819;SDS011;54618;52.018;5.576;2022-09-03T12:47:02;1.67;;;1.00;;
67819;SDS011;54618;52.018;5.576;2022-09-03T12:49:36;4.47;;;1.08;;
67819;SDS011;54618;52.018;5.576;2022-09-03T12:52:17;1.90;;;1.10;;
67819;SDS011;54618;52.018;5.576;2022-09-03T12:55:00;3.88;;;1.10;;
67819;SDS011;54618;52.018;5.576;2022-09-03T12:57:36;1.30;;;1.00;;
67819;SDS011;54618;52.018;5.576;2022-09-03T13:00:06;2.05;;;1.05;;
67819;SDS011;54618;52.018;5.576;2022-09-03T13:05:14;2.58;;;1.10;;
67819;SDS011;54618;52.018;5.576;2022-09-03T13:07:44;2.00;;;1.10;;
67819;SDS011;54618;52.018;5.576;2022-09-03T13:12:58;1.83;;;1.10;;
67819;SDS011;54618;52.018;5.576;2022-09-03T13:15:25;3.28;;;1.15;;
67819;SDS011;54618;52.018;5.576;2022-09-03T13:17:56;5.70;;;1.30;;
67819;SDS011;54618;52.018;5.576;2022-09-03T13:20:59;4.85;;;1.30;;
67819;SDS011;54618;52.018;5.576;2022-09-03T13:29:07;4.18;;;1.40;;
67819;SDS011;54618;52.018;5.576;2022-09-03T13:32:35;3.90;;;1.30;;
67819;SDS011;54618;52.018;5.576;2022-09-03T13:37:55;4.73;;;1.57;;
67819;SDS011;54618;52.018;5.576;2022-09-03T13:40:44;4.05;;;1.60;;
67819;SDS011;54618;52.018;5.576;2022-09-03T13:43:19;3.78;;;1.40;;
67819;SDS011;54618;52.018;5.576;2022-09-03T13:46:05;3.05;;;1.25;;
67819;SDS011;54618;52.018;5.576;2022-09-03T13:48:42;2.03;;;1.30;;
67819;SDS011;54618;52.018;5.576;2022-09-03T13:51:46;1.77;;;1.20;;
67819;SDS011;54618;52.018;5.576;2022-09-03T13:54:14;2.38;;;1.23;;
67819;SDS011;54618;52.018;5.576;2022-09-03T14:08:04;3.55;;;1.30;;
67819;SDS011;54618;52.018;5.576;2022-09-03T14:13:30;2.90;;;1.40;;
67819;SDS011;54618;52.018;5.576;2022-09-03T14:16:23;2.67;;;1.23;;
67819;SDS011;54618;52.018;5.576;2022-09-03T14:18:56;2.58;;;1.25;;
67819;SDS011;54618;52.018;5.576;2022-09-03T14:21:41;3.83;;;1.15;;
67819;SDS011;54618;52.018;5.576;2022-09-03T14:24:12;3.17;;;1.30;;
67819;SDS011;54618;52.018;5.576;2022-09-03T14:26:51;1.75;;;1.20;;
67819;SDS011;54618;52.018;5.576;2022-09-03T14:29:22;1.70;;;1.30;;
67819;SDS011;54618;52.018;5.576;2022-09-03T14:35:04;2.65;;;1.30;;
67819;SDS011;54618;52.018;5.576;2022-09-03T14:43:14;3.38;;;1.30;;
67819;SDS011;54618;52.018;5.576;2022-09-03T14:45:51;3.78;;;1.17;;
67819;SDS011;54618;52.018;5.576;2022-09-03T14:54:15;1.90;;;1.15;;
67819;SDS011;54618;52.018;5.576;2022-09-03T15:02:02;2.67;;;1.10;;
67819;SDS011;54618;52.018;5.576;2022-09-03T15:04:50;2.88;;;1.38;;
67819;SDS011;54618;52.018;5.576;2022-09-03T15:10:15;3.40;;;1.15;;
67819;SDS011;54618;52.018;5.576;2022-09-03T15:12:57;1.75;;;1.20;;
67819;SDS011;54618;52.018;5.576;2022-09-03T15:15:35;2.85;;;1.40;;
67819;SDS011;54618;52.018;5.576;2022-09-03T15:20:57;2.45;;;1.40;;
67819;SDS011;54618;52.018;5.576;2022-09-03T15:23:47;1.73;;;1.20;;
67819;SDS011;54618;52.018;5.576;2022-09-03T15:26:40;2.25;;;1.50;;
67819;SDS011;54618;52.018;5.576;2022-09-03T15:29:22;2.20;;;1.40;;
67819;SDS011;54618;52.018;5.576;2022-09-03T15:35:03;1.80;;;1.38;;
67819;SDS011;54618;52.018;5.576;2022-09-03T15:40:21;2.78;;;1.33;;
67819;SDS011;54618;52.018;5.576;2022-09-03T15:42:52;3.10;;;1.33;;
67819;SDS011;54618;52.018;5.576;2022-09-03T15:45:35;1.95;;;1.30;;
67819;SDS011;54618;52.018;5.576;2022-09-03T15:48:45;1.92;;;1.30;;
67819;SDS011;54618;52.018;5.576;2022-09-03T15:56:54;2.15;;;1.33;;
67819;SDS011;54618;52.018;5.576;2022-09-03T16:15:48;3.33;;;1.40;;
67819;SDS011;54618;52.018;5.576;2022-09-03T16:18:45;1.93;;;1.30;;
67819;SDS011;54618;52.018;5.576;2022-09-03T16:21:22;2.67;;;1.40;;
67819;SDS011;54618;52.018;5.576;2022-09-03T16:24:11;1.90;;;1.25;;
67819;SDS011;54618;52.018;5.576;2022-09-03T16:29:13;2.13;;;1.38;;
67819;SDS011;54618;52.018;5.576;2022-09-03T16:34:28;1.83;;;1.40;;
67819;SDS011;54618;52.018;5.576;2022-09-03T16:45:04;2.70;;;1.40;;
67819;SDS011;54618;52.018;5.576;2022-09-03T16:50:23;7.10;;;1.55;;
67819;SDS011;54618;52.018;5.576;2022-09-03T16:53:13;3.50;;;1.50;;
67819;SDS011;54618;52.018;5.576;2022-09-03T16:58:24;11.82;;;1.98;;
67819;SDS011;54618;52.018;5.576;2022-09-03T17:01:12;11.95;;;1.80;;
67819;SDS011;54618;52.018;5.576;2022-09-03T17:14:26;5.00;;;1.70;;
67819;SDS011;54618;52.018;5.576;2022-09-03T17:25:19;9.18;;;2.75;;
67819;SDS011;54618;52.018;5.576;2022-09-03T17:30:56;13.18;;;2.67;;
67819;SDS011;54618;52.018;5.576;2022-09-03T17:37:04;13.07;;;2.50;;
67819;SDS011;54618;52.018;5.576;2022-09-03T17:40:02;12.13;;;2.45;;
67819;SDS011;54618;52.018;5.576;2022-09-03T17:42:59;10.45;;;2.65;;
67819;SDS011;54618;52.018;5.576;2022-09-03T17:51:03;12.75;;;3.42;;
67819;SDS011;54618;52.018;5.576;2022-09-03T17:53:38;15.45;;;2.65;;
67819;SDS011;54618;52.018;5.576;2022-09-03T17:56:22;12.18;;;2.35;;
67819;SDS011;54618;52.018;5.576;2022-09-03T18:01:58;7.88;;;2.53;;
67819;SDS011;54618;52.018;5.576;2022-09-03T18:07:46;8.63;;;2.55;;
67819;SDS011;54618;52.018;5.576;2022-09-03T18:15:47;10.57;;;2.50;;
67819;SDS011;54618;52.018;5.576;2022-09-03T18:18:24;5.68;;;2.10;;
67819;SDS011;54618;52.018;5.576;2022-09-03T18:20:52;8.43;;;2.58;;
67819;SDS011;54618;52.018;5.576;2022-09-03T18:26:54;6.05;;;2.40;;
67819;SDS011;54618;52.018;5.576;2022-09-03T18:29:44;10.20;;;2.60;;
67819;SDS011;54618;52.018;5.576;2022-09-03T18:32:44;5.70;;;2.65;;
67819;SDS011;54618;52.018;5.576;2022-09-03T18:35:29;8.93;;;2.35;;
67819;SDS011;54618;52.018;5.576;2022-09-03T18:38:22;8.55;;;2.63;;
67819;SDS011;54618;52.018;5.576;2022-09-03T18:41:29;4.25;;;2.30;;
67819;SDS011;54618;52.018;5.576;2022-09-03T18:56:24;5.82;;;2.35;;
67819;SDS011;54618;52.018;5.576;2022-09-03T19:02:01;9.73;;;2.47;;
67819;SDS011;54618;52.018;5.576;2022-09-03T19:05:05;6.53;;;2.53;;
67819;SDS011;54618;52.018;5.576;2022-09-03T19:13:55;5.25;;;2.30;;
67819;SDS011;54618;52.018;5.576;2022-09-03T19:22:40;5.10;;;2.25;;
67819;SDS011;54618;52.018;5.576;2022-09-03T19:25:25;4.80;;;2.30;;
67819;SDS011;54618;52.018;5.576;2022-09-03T19:28:22;3.88;;;2.17;;
67819;SDS011;54618;52.018;5.576;2022-09-03T19:43:59;4.10;;;2.40;;
67819;SDS011;54618;52.018;5.576;2022-09-03T19:47:05;4.05;;;2.20;;
67819;SDS011;54618;52.018;5.576;2022-09-03T19:53:00;5.80;;;2.30;;
67819;SDS011;54618;52.018;5.576;2022-09-03T19:58:53;5.10;;;2.20;;
67819;SDS011;54618;52.018;5.576;2022-09-03T20:01:39;5.43;;;2.30;;
67819;SDS011;54618;52.018;5.576;2022-09-03T20:04:35;6.25;;;2.67;;
67819;SDS011;54618;52.018;5.576;2022-09-03T20:07:32;7.10;;;2.60;;
67819;SDS011;54618;52.018;5.576;2022-09-03T20:10:18;2.92;;;2.30;;
67819;SDS011;54618;52.018;5.576;2022-09-03T20:13:30;4.10;;;2.83;;
67819;SDS011;54618;52.018;5.576;2022-09-03T20:15:57;6.95;;;2.30;;
67819;SDS011;54618;52.018;5.576;2022-09-03T20:21:13;4.18;;;2.30;;
67819;SDS011;54618;52.018;5.576;2022-09-03T20:24:07;3.53;;;2.28;;
67819;SDS011;54618;52.018;5.576;2022-09-03T20:27:01;4.00;;;2.53;;
67819;SDS011;54618;52.018;5.576;2022-09-03T20:35:09;5.55;;;2.92;;
67819;SDS011;54618;52.018;5.576;2022-09-03T20:46:38;5.15;;;2.45;;
67819;SDS011;54618;52.018;5.576;2022-09-03T20:52:03;5.95;;;2.50;;
67819;SDS011;54618;52.018;5.576;2022-09-03T21:00:04;4.15;;;2.55;;
67819;SDS011;54618;52.018;5.576;2022-09-03T21:05:43;4.43;;;2.40;;
67819;SDS011;54618;52.018;5.576;2022-09-03T21:11:14;4.20;;;2.60;;
67819;SDS011;54618;52.018;5.576;2022-09-03T21:22:03;4.50;;;2.70;;
67819;SDS011;54618;52.018;5.576;2022-09-03T21:24:50;4.13;;;2.80;;
67819;SDS011;54618;52.018;5.576;2022-09-03T21:27:20;4.90;;;2.75;;
67819;SDS011;54618;52.018;5.576;2022-09-03T21:29:55;4.20;;;2.70;;
67819;SDS011;54618;52.018;5.576;2022-09-03T21:32:33;4.57;;;2.72;;
67819;SDS011;54618;52.018;5.576;2022-09-03T21:37:43;4.03;;;2.80;;
67819;SDS011;54618;52.018;5.576;2022-09-03T21:40:15;6.00;;;3.10;;